sensor_id;sensor_type;location;lat;lon;timestamp;P1;P2;P0
38687;PMS5003;24444;53.216;-6.664;2022-12-13T00:00:25;58;51;
38687;PMS5003;24444;53.216;-6.664;2022-12-13T00:02:52;61;49;
38687;PMS5003;24444;53.216;-6.664;2022-12-13T00:05:20;59;50;
38687;PMS5003;24444;53.216;-6.664;2022-12-13T00:07:49;61;49;
38687;PMS5003;24444;53.216;-6.664;2022-12-13T00:10:18;59;51;
38687;PMS5003;24444;53.216;-6.664;2022-12-13T00:12:47;63;47;
38687;PMS5003;24444;53.216;-6.664;2022-12-13T00:15:15;58;47;
38687;PMS5003;24444;53.216;-6.664;2022-12-13T00:17:44;59;46;
38687;PMS5003;24444;53.216;-6.664;2022-12-13T00:20:13;65;54;
38687;PMS5003;24444;53.216;-6.664;2022-12-13T00:22:41;63;52;
38687;PMS5003;24444;53.216;-6.664;2022-12-13T00:25:10;64;55;
38687;PMS5003;24444;53.216;-6.664;2022-12-13T00:27:39;75;62;
38687;PMS5003;24444;53.216;-6.664;2022-12-13T00:30:08;73;63;
38687;PMS5003;24444;53.216;-6.664;2022-12-13T00:32:38;80;62;
38687;PMS5003;24444;53.216;-6.664;2022-12-13T00:35:06;72;56;
38687;PMS5003;24444;53.216;-6.664;2022-12-13T00:37:35;61;57;
38687;PMS5003;24444;53.216;-6.664;2022-12-13T00:40:04;81;56;
38687;PMS5003;24444;53.216;-6.664;2022-12-13T00:42:34;70;60;
38687;PMS5003;24444;53.216;-6.664;2022-12-13T00:45:03;80;61;
38687;PMS5003;24444;53.216;-6.664;2022-12-13T00:47:32;67;53;
38687;PMS5003;24444;53.216;-6.664;2022-12-13T00:50:00;77;57;
38687;PMS5003;24444;53.216;-6.664;2022-12-13T00:52:28;84;64;
38687;PMS5003;24444;53.216;-6.664;2022-12-13T00:54:56;76;63;
38687;PMS5003;24444;53.216;-6.664;2022-12-13T00:57:25;74;63;
38687;PMS5003;24444;53.216;-6.664;2022-12-13T00:59:54;86;70;
38687;PMS5003;24444;53.216;-6.664;2022-12-13T01:02:22;89;70;
38687;PMS5003;24444;53.216;-6.664;2022-12-13T01:04:51;82;70;
38687;PMS5003;24444;53.216;-6.664;2022-12-13T01:07:19;84;65;
38687;PMS5003;24444;53.216;-6.664;2022-12-13T01:09:47;83;68;
38687;PMS5003;24444;53.216;-6.664;2022-12-13T01:12:15;81;67;
38687;PMS5003;24444;53.216;-6.664;2022-12-13T01:14:44;79;65;
38687;PMS5003;24444;53.216;-6.664;2022-12-13T01:17:12;84;63;
38687;PMS5003;24444;53.216;-6.664;2022-12-13T01:19:41;89;70;
38687;PMS5003;24444;53.216;-6.664;2022-12-13T01:22:10;83;64;
38687;PMS5003;24444;53.216;-6.664;2022-12-13T01:24:38;84;74;
38687;PMS5003;24444;53.216;-6.664;2022-12-13T01:27:07;75;67;
38687;PMS5003;24444;53.216;-6.664;2022-12-13T01:29:35;79;68;
38687;PMS5003;24444;53.216;-6.664;2022-12-13T01:32:02;80;67;
38687;PMS5003;24444;53.216;-6.664;2022-12-13T01:34:29;87;67;
38687;PMS5003;24444;53.216;-6.664;2022-12-13T01:36:57;74;60;
38687;PMS5003;24444;53.216;-6.664;2022-12-13T01:39:25;82;61;
38687;PMS5003;24444;53.216;-6.664;2022-12-13T01:41:52;76;66;
38687;PMS5003;24444;53.216;-6.664;2022-12-13T01:45:26;80;66;
38687;PMS5003;24444;53.216;-6.664;2022-12-13T01:47:55;73;67;
38687;PMS5003;24444;53.216;-6.664;2022-12-13T01:50:29;83;67;
38687;PMS5003;24444;53.216;-6.664;2022-12-13T01:53:03;74;59;
38687;PMS5003;24444;53.216;-6.664;2022-12-13T01:55:33;74;62;
38687;PMS5003;24444;53.216;-6.664;2022-12-13T01:58:03;72;59;
38687;PMS5003;24444;53.216;-6.664;2022-12-13T02:00:31;77;64;
38687;PMS5003;24444;53.216;-6.664;2022-12-13T02:03:02;86;69;
38687;PMS5003;24444;53.216;-6.664;2022-12-13T02:05:32;75;60;
38687;PMS5003;24444;53.216;-6.664;2022-12-13T02:08:02;82;69;
38687;PMS5003;24444;53.216;-6.664;2022-12-13T02:10:31;90;62;
38687;PMS5003;24444;53.216;-6.664;2022-12-13T02:12:58;87;68;
38687;PMS5003;24444;53.216;-6.664;2022-12-13T02:15:26;78;64;
38687;PMS5003;24444;53.216;-6.664;2022-12-13T02:18:08;76;61;
38687;PMS5003;24444;53.216;-6.664;2022-12-13T02:20:57;78;63;
38687;PMS5003;24444;53.216;-6.664;2022-12-13T02:25:52;68;58;
38687;PMS5003;24444;53.216;-6.664;2022-12-13T02:28:38;86;73;
38687;PMS5003;24444;53.216;-6.664;2022-12-13T02:31:16;86;72;
38687;PMS5003;24444;53.216;-6.664;2022-12-13T02:33:51;72;63;
38687;PMS5003;24444;53.216;-6.664;2022-12-13T02:36:26;91;67;
38687;PMS5003;24444;53.216;-6.664;2022-12-13T02:38:57;78;56;
38687;PMS5003;24444;53.216;-6.664;2022-12-13T02:41:32;66;54;
38687;PMS5003;24444;53.216;-6.664;2022-12-13T02:44:05;68;54;
38687;PMS5003;24444;53.216;-6.664;2022-12-13T02:46:35;64;53;
38687;PMS5003;24444;53.216;-6.664;2022-12-13T02:49:08;69;52;
38687;PMS5003;24444;53.216;-6.664;2022-12-13T02:51:37;73;58;
38687;PMS5003;24444;53.216;-6.664;2022-12-13T02:54:07;68;52;
38687;PMS5003;24444;53.216;-6.664;2022-12-13T02:56:35;68;52;
38687;PMS5003;24444;53.216;-6.664;2022-12-13T02:59:07;74;57;
38687;PMS5003;24444;53.216;-6.664;2022-12-13T03:01:42;63;54;
38687;PMS5003;24444;53.216;-6.664;2022-12-13T03:04:21;68;54;
38687;PMS5003;24444;53.216;-6.664;2022-12-13T03:07:05;72;59;
38687;PMS5003;24444;53.216;-6.664;2022-12-13T03:09:46;70;57;
38687;PMS5003;24444;53.216;-6.664;2022-12-13T03:12:24;63;53;
38687;PMS5003;24444;53.216;-6.664;2022-12-13T03:14:59;63;50;
38687;PMS5003;24444;53.216;-6.664;2022-12-13T03:17:36;60;53;
38687;PMS5003;24444;53.216;-6.664;2022-12-13T03:20:09;75;64;
38687;PMS5003;24444;53.216;-6.664;2022-12-13T03:22:41;70;61;
38687;PMS5003;24444;53.216;-6.664;2022-12-13T03:25:09;81;60;
38687;PMS5003;24444;53.216;-6.664;2022-12-13T03:27:38;78;64;
38687;PMS5003;24444;53.216;-6.664;2022-12-13T03:30:07;66;59;
38687;PMS5003;24444;53.216;-6.664;2022-12-13T03:32:35;72;66;
38687;PMS5003;24444;53.216;-6.664;2022-12-13T03:35:04;69;63;
38687;PMS5003;24444;53.216;-6.664;2022-12-13T03:37:35;91;68;
38687;PMS5003;24444;53.216;-6.664;2022-12-13T03:40:05;89;69;
38687;PMS5003;24444;53.216;-6.664;2022-12-13T03:42:35;84;75;
38687;PMS5003;24444;53.216;-6.664;2022-12-13T03:45:04;84;71;
38687;PMS5003;24444;53.216;-6.664;2022-12-13T03:47:32;87;68;
38687;PMS5003;24444;53.216;-6.664;2022-12-13T03:50:00;84;67;
38687;PMS5003;24444;53.216;-6.664;2022-12-13T03:52:29;77;63;
38687;PMS5003;24444;53.216;-6.664;2022-12-13T03:54:57;69;64;
38687;PMS5003;24444;53.216;-6.664;2022-12-13T03:57:24;74;64;
38687;PMS5003;24444;53.216;-6.664;2022-12-13T03:59:52;72;64;
38687;PMS5003;24444;53.216;-6.664;2022-12-13T04:02:19;75;62;
38687;PMS5003;24444;53.216;-6.664;2022-12-13T04:04:47;83;57;
38687;PMS5003;24444;53.216;-6.664;2022-12-13T04:07:14;64;56;
38687;PMS5003;24444;53.216;-6.664;2022-12-13T04:09:41;64;58;
38687;PMS5003;24444;53.216;-6.664;2022-12-13T04:12:08;59;45;
38687;PMS5003;24444;53.216;-6.664;2022-12-13T04:14:35;50;43;
38687;PMS5003;24444;53.216;-6.664;2022-12-13T04:17:03;53;40;
38687;PMS5003;24444;53.216;-6.664;2022-12-13T04:19:30;48;42;
38687;PMS5003;24444;53.216;-6.664;2022-12-13T04:21:57;61;47;
38687;PMS5003;24444;53.216;-6.664;2022-12-13T04:24:24;61;45;
38687;PMS5003;24444;53.216;-6.664;2022-12-13T04:26:52;53;43;
38687;PMS5003;24444;53.216;-6.664;2022-12-13T04:29:19;52;44;
38687;PMS5003;24444;53.216;-6.664;2022-12-13T04:31:46;66;55;
38687;PMS5003;24444;53.216;-6.664;2022-12-13T04:34:13;64;54;
38687;PMS5003;24444;53.216;-6.664;2022-12-13T04:36:41;69;61;
38687;PMS5003;24444;53.216;-6.664;2022-12-13T04:39:08;72;58;
38687;PMS5003;24444;53.216;-6.664;2022-12-13T04:41:36;67;60;
38687;PMS5003;24444;53.216;-6.664;2022-12-13T04:44:04;80;69;
38687;PMS5003;24444;53.216;-6.664;2022-12-13T04:46:32;67;58;
38687;PMS5003;24444;53.216;-6.664;2022-12-13T04:48:59;70;60;
38687;PMS5003;24444;53.216;-6.664;2022-12-13T04:51:27;65;55;
38687;PMS5003;24444;53.216;-6.664;2022-12-13T04:53:54;72;63;
38687;PMS5003;24444;53.216;-6.664;2022-12-13T04:56:21;80;61;
38687;PMS5003;24444;53.216;-6.664;2022-12-13T04:58:49;65;56;
38687;PMS5003;24444;53.216;-6.664;2022-12-13T05:01:21;68;54;
38687;PMS5003;24444;53.216;-6.664;2022-12-13T05:03:48;72;58;
38687;PMS5003;24444;53.216;-6.664;2022-12-13T05:06:15;71;59;
38687;PMS5003;24444;53.216;-6.664;2022-12-13T05:08:43;72;60;
38687;PMS5003;24444;53.216;-6.664;2022-12-13T05:11:10;69;58;
38687;PMS5003;24444;53.216;-6.664;2022-12-13T05:13:38;80;57;
38687;PMS5003;24444;53.216;-6.664;2022-12-13T05:16:06;66;55;
38687;PMS5003;24444;53.216;-6.664;2022-12-13T05:18:35;70;60;
38687;PMS5003;24444;53.216;-6.664;2022-12-13T05:21:04;63;54;
38687;PMS5003;24444;53.216;-6.664;2022-12-13T05:23:33;75;60;
38687;PMS5003;24444;53.216;-6.664;2022-12-13T05:26:01;67;54;
38687;PMS5003;24444;53.216;-6.664;2022-12-13T05:28:29;65;59;
38687;PMS5003;24444;53.216;-6.664;2022-12-13T05:30:58;64;51;
38687;PMS5003;24444;53.216;-6.664;2022-12-13T05:33:31;64;57;
38687;PMS5003;24444;53.216;-6.664;2022-12-13T05:35:58;53;51;
38687;PMS5003;24444;53.216;-6.664;2022-12-13T05:38:25;67;54;
38687;PMS5003;24444;53.216;-6.664;2022-12-13T05:40:53;61;51;
38687;PMS5003;24444;53.216;-6.664;2022-12-13T05:43:20;58;52;
38687;PMS5003;24444;53.216;-6.664;2022-12-13T05:45:47;57;47;
38687;PMS5003;24444;53.216;-6.664;2022-12-13T05:48:14;58;52;
38687;PMS5003;24444;53.216;-6.664;2022-12-13T05:50:41;63;47;
38687;PMS5003;24444;53.216;-6.664;2022-12-13T05:53:09;53;49;
38687;PMS5003;24444;53.216;-6.664;2022-12-13T05:55:36;51;48;
38687;PMS5003;24444;53.216;-6.664;2022-12-13T05:58:04;59;52;
38687;PMS5003;24444;53.216;-6.664;2022-12-13T06:00:31;65;54;
38687;PMS5003;24444;53.216;-6.664;2022-12-13T06:02:59;57;50;
38687;PMS5003;24444;53.216;-6.664;2022-12-13T06:05:27;56;47;
38687;PMS5003;24444;53.216;-6.664;2022-12-13T06:07:55;63;49;
38687;PMS5003;24444;53.216;-6.664;2022-12-13T06:10:23;63;52;
38687;PMS5003;24444;53.216;-6.664;2022-12-13T06:12:51;52;51;
38687;PMS5003;24444;53.216;-6.664;2022-12-13T06:15:18;62;49;
38687;PMS5003;24444;53.216;-6.664;2022-12-13T06:17:45;55;48;
38687;PMS5003;24444;53.216;-6.664;2022-12-13T06:20:12;56;48;
38687;PMS5003;24444;53.216;-6.664;2022-12-13T06:22:39;62;53;
38687;PMS5003;24444;53.216;-6.664;2022-12-13T06:25:06;63;51;
38687;PMS5003;24444;53.216;-6.664;2022-12-13T06:27:33;56;45;
38687;PMS5003;24444;53.216;-6.664;2022-12-13T06:30:00;56;46;
38687;PMS5003;24444;53.216;-6.664;2022-12-13T06:32:28;58;48;
38687;PMS5003;24444;53.216;-6.664;2022-12-13T06:34:55;54;45;
38687;PMS5003;24444;53.216;-6.664;2022-12-13T06:37:21;52;43;
38687;PMS5003;24444;53.216;-6.664;2022-12-13T06:39:48;58;51;
38687;PMS5003;24444;53.216;-6.664;2022-12-13T06:42:16;61;48;
38687;PMS5003;24444;53.216;-6.664;2022-12-13T06:44:44;65;50;
38687;PMS5003;24444;53.216;-6.664;2022-12-13T06:47:11;55;48;
38687;PMS5003;24444;53.216;-6.664;2022-12-13T06:49:38;51;47;
38687;PMS5003;24444;53.216;-6.664;2022-12-13T06:52:07;54;46;
38687;PMS5003;24444;53.216;-6.664;2022-12-13T06:54:35;62;49;
38687;PMS5003;24444;53.216;-6.664;2022-12-13T06:57:02;55;47;
38687;PMS5003;24444;53.216;-6.664;2022-12-13T06:59:30;51;44;
38687;PMS5003;24444;53.216;-6.664;2022-12-13T07:01:57;48;42;
38687;PMS5003;24444;53.216;-6.664;2022-12-13T07:04:24;51;45;
38687;PMS5003;24444;53.216;-6.664;2022-12-13T07:06:51;44;40;
38687;PMS5003;24444;53.216;-6.664;2022-12-13T07:09:19;52;40;
38687;PMS5003;24444;53.216;-6.664;2022-12-13T07:11:46;49;37;
38687;PMS5003;24444;53.216;-6.664;2022-12-13T07:14:13;55;42;
38687;PMS5003;24444;53.216;-6.664;2022-12-13T07:16:40;58;44;
38687;PMS5003;24444;53.216;-6.664;2022-12-13T07:19:08;55;47;
38687;PMS5003;24444;53.216;-6.664;2022-12-13T07:21:37;37;35;
38687;PMS5003;24444;53.216;-6.664;2022-12-13T07:24:05;50;46;
38687;PMS5003;24444;53.216;-6.664;2022-12-13T07:26:32;46;38;
38687;PMS5003;24444;53.216;-6.664;2022-12-13T07:29:01;43;40;
38687;PMS5003;24444;53.216;-6.664;2022-12-13T07:31:30;50;42;
38687;PMS5003;24444;53.216;-6.664;2022-12-13T07:33:59;50;46;
38687;PMS5003;24444;53.216;-6.664;2022-12-13T07:36:26;55;44;
38687;PMS5003;24444;53.216;-6.664;2022-12-13T07:38:54;58;48;
38687;PMS5003;24444;53.216;-6.664;2022-12-13T07:41:24;49;46;
38687;PMS5003;24444;53.216;-6.664;2022-12-13T07:43:52;58;47;
38687;PMS5003;24444;53.216;-6.664;2022-12-13T07:46:19;67;52;
38687;PMS5003;24444;53.216;-6.664;2022-12-13T07:48:47;54;49;
38687;PMS5003;24444;53.216;-6.664;2022-12-13T07:51:14;57;47;
38687;PMS5003;24444;53.216;-6.664;2022-12-13T07:53:41;54;50;
38687;PMS5003;24444;53.216;-6.664;2022-12-13T07:56:10;59;51;
38687;PMS5003;24444;53.216;-6.664;2022-12-13T07:58:38;50;47;
38687;PMS5003;24444;53.216;-6.664;2022-12-13T08:01:08;49;40;
38687;PMS5003;24444;53.216;-6.664;2022-12-13T08:03:35;45;38;
38687;PMS5003;24444;53.216;-6.664;2022-12-13T08:06:03;43;37;
38687;PMS5003;24444;53.216;-6.664;2022-12-13T08:08:31;53;44;
38687;PMS5003;24444;53.216;-6.664;2022-12-13T08:11:00;60;46;
38687;PMS5003;24444;53.216;-6.664;2022-12-13T08:13:28;54;46;
38687;PMS5003;24444;53.216;-6.664;2022-12-13T08:15:58;54;49;
38687;PMS5003;24444;53.216;-6.664;2022-12-13T08:18:26;56;45;
38687;PMS5003;24444;53.216;-6.664;2022-12-13T08:20:56;56;46;
38687;PMS5003;24444;53.216;-6.664;2022-12-13T08:23:24;54;48;
38687;PMS5003;24444;53.216;-6.664;2022-12-13T08:25:51;58;51;
38687;PMS5003;24444;53.216;-6.664;2022-12-13T08:28:19;58;46;
38687;PMS5003;24444;53.216;-6.664;2022-12-13T08:30:46;50;45;
38687;PMS5003;24444;53.216;-6.664;2022-12-13T08:33:14;66;56;
38687;PMS5003;24444;53.216;-6.664;2022-12-13T08:35:42;53;45;
38687;PMS5003;24444;53.216;-6.664;2022-12-13T08:38:09;55;43;
38687;PMS5003;24444;53.216;-6.664;2022-12-13T08:40:37;53;44;
38687;PMS5003;24444;53.216;-6.664;2022-12-13T08:43:04;55;44;
38687;PMS5003;24444;53.216;-6.664;2022-12-13T08:45:32;60;50;
38687;PMS5003;24444;53.216;-6.664;2022-12-13T08:47:59;54;46;
38687;PMS5003;24444;53.216;-6.664;2022-12-13T08:50:28;61;50;
38687;PMS5003;24444;53.216;-6.664;2022-12-13T08:52:55;61;51;
38687;PMS5003;24444;53.216;-6.664;2022-12-13T08:55:23;64;51;
38687;PMS5003;24444;53.216;-6.664;2022-12-13T08:57:50;60;51;
38687;PMS5003;24444;53.216;-6.664;2022-12-13T09:00:18;61;49;
38687;PMS5003;24444;53.216;-6.664;2022-12-13T09:02:47;52;45;
38687;PMS5003;24444;53.216;-6.664;2022-12-13T09:05:14;55;45;
38687;PMS5003;24444;53.216;-6.664;2022-12-13T09:07:41;58;50;
38687;PMS5003;24444;53.216;-6.664;2022-12-13T09:10:09;60;49;
38687;PMS5003;24444;53.216;-6.664;2022-12-13T09:12:40;50;46;
38687;PMS5003;24444;53.216;-6.664;2022-12-13T09:15:08;52;46;
38687;PMS5003;24444;53.216;-6.664;2022-12-13T09:17:35;51;45;
38687;PMS5003;24444;53.216;-6.664;2022-12-13T09:20:04;56;50;
38687;PMS5003;24444;53.216;-6.664;2022-12-13T09:22:33;70;62;
38687;PMS5003;24444;53.216;-6.664;2022-12-13T09:25:00;56;52;
38687;PMS5003;24444;53.216;-6.664;2022-12-13T09:27:27;72;60;
38687;PMS5003;24444;53.216;-6.664;2022-12-13T09:29:55;64;50;
38687;PMS5003;24444;53.216;-6.664;2022-12-13T09:32:22;55;49;
38687;PMS5003;24444;53.216;-6.664;2022-12-13T09:34:50;57;45;
38687;PMS5003;24444;53.216;-6.664;2022-12-13T09:37:17;52;49;
38687;PMS5003;24444;53.216;-6.664;2022-12-13T09:39:45;65;52;
38687;PMS5003;24444;53.216;-6.664;2022-12-13T09:42:15;99;81;
38687;PMS5003;24444;53.216;-6.664;2022-12-13T09:44:48;112;87;
38687;PMS5003;24444;53.216;-6.664;2022-12-13T09:47:22;109;91;
38687;PMS5003;24444;53.216;-6.664;2022-12-13T09:49:55;127;103;
38687;PMS5003;24444;53.216;-6.664;2022-12-13T09:52:24;144;124;
38687;PMS5003;24444;53.216;-6.664;2022-12-13T09:54:52;145;124;
38687;PMS5003;24444;53.216;-6.664;2022-12-13T09:57:22;103;89;
38687;PMS5003;24444;53.216;-6.664;2022-12-13T09:59:52;107;85;
38687;PMS5003;24444;53.216;-6.664;2022-12-13T10:02:21;103;86;
38687;PMS5003;24444;53.216;-6.664;2022-12-13T10:04:51;91;80;
38687;PMS5003;24444;53.216;-6.664;2022-12-13T10:07:20;111;93;
38687;PMS5003;24444;53.216;-6.664;2022-12-13T10:09:55;133;109;
38687;PMS5003;24444;53.216;-6.664;2022-12-13T10:12:26;130;110;
38687;PMS5003;24444;53.216;-6.664;2022-12-13T10:14:55;101;84;
38687;PMS5003;24444;53.216;-6.664;2022-12-13T10:17:27;95;78;
38687;PMS5003;24444;53.216;-6.664;2022-12-13T10:20:00;79;68;
38687;PMS5003;24444;53.216;-6.664;2022-12-13T10:22:27;79;67;
38687;PMS5003;24444;53.216;-6.664;2022-12-13T10:24:56;74;60;
38687;PMS5003;24444;53.216;-6.664;2022-12-13T10:27:26;66;59;
38687;PMS5003;24444;53.216;-6.664;2022-12-13T10:30:01;75;58;
38687;PMS5003;24444;53.216;-6.664;2022-12-13T10:32:31;66;58;
38687;PMS5003;24444;53.216;-6.664;2022-12-13T10:35:15;80;66;
38687;PMS5003;24444;53.216;-6.664;2022-12-13T10:37:48;67;57;
38687;PMS5003;24444;53.216;-6.664;2022-12-13T10:40:24;80;64;
38687;PMS5003;24444;53.216;-6.664;2022-12-13T10:43:11;85;66;
38687;PMS5003;24444;53.216;-6.664;2022-12-13T10:45:40;100;80;
38687;PMS5003;24444;53.216;-6.664;2022-12-13T10:48:16;111;92;
38687;PMS5003;24444;53.216;-6.664;2022-12-13T10:50:54;399;330;
38687;PMS5003;24444;53.216;-6.664;2022-12-13T10:53:27;261;223;
38687;PMS5003;24444;53.216;-6.664;2022-12-13T10:55:56;305;287;
38687;PMS5003;24444;53.216;-6.664;2022-12-13T10:58:33;159;144;
38687;PMS5003;24444;53.216;-6.664;2022-12-13T11:01:07;85;72;
38687;PMS5003;24444;53.216;-6.664;2022-12-13T11:03:37;162;140;
38687;PMS5003;24444;53.216;-6.664;2022-12-13T11:06:05;122;108;
38687;PMS5003;24444;53.216;-6.664;2022-12-13T11:08:37;130;121;
38687;PMS5003;24444;53.216;-6.664;2022-12-13T11:11:05;110;84;
38687;PMS5003;24444;53.216;-6.664;2022-12-13T11:13:35;121;108;
38687;PMS5003;24444;53.216;-6.664;2022-12-13T11:16:25;141;130;
38687;PMS5003;24444;53.216;-6.664;2022-12-13T11:18:56;114;106;
38687;PMS5003;24444;53.216;-6.664;2022-12-13T11:21:28;125;109;
38687;PMS5003;24444;53.216;-6.664;2022-12-13T11:23:58;78;67;
38687;PMS5003;24444;53.216;-6.664;2022-12-13T11:26:28;71;60;
38687;PMS5003;24444;53.216;-6.664;2022-12-13T11:29:02;54;46;
38687;PMS5003;24444;53.216;-6.664;2022-12-13T11:31:42;68;59;
38687;PMS5003;24444;53.216;-6.664;2022-12-13T11:34:22;66;54;
38687;PMS5003;24444;53.216;-6.664;2022-12-13T11:37:00;70;62;
38687;PMS5003;24444;53.216;-6.664;2022-12-13T11:39:38;71;67;
38687;PMS5003;24444;53.216;-6.664;2022-12-13T11:42:10;88;84;
38687;PMS5003;24444;53.216;-6.664;2022-12-13T11:44:47;145;124;
38687;PMS5003;24444;53.216;-6.664;2022-12-13T11:47:25;127;120;
38687;PMS5003;24444;53.216;-6.664;2022-12-13T11:49:56;109;101;
38687;PMS5003;24444;53.216;-6.664;2022-12-13T11:52:26;74;61;
38687;PMS5003;24444;53.216;-6.664;2022-12-13T11:54:58;127;105;
38687;PMS5003;24444;53.216;-6.664;2022-12-13T11:57:29;126;120;
38687;PMS5003;24444;53.216;-6.664;2022-12-13T12:00:16;163;154;
38687;PMS5003;24444;53.216;-6.664;2022-12-13T12:02:58;96;86;
38687;PMS5003;24444;53.216;-6.664;2022-12-13T12:05:32;73;66;
38687;PMS5003;24444;53.216;-6.664;2022-12-13T12:08:03;70;58;
38687;PMS5003;24444;53.216;-6.664;2022-12-13T12:10:39;117;106;
38687;PMS5003;24444;53.216;-6.664;2022-12-13T12:13:10;114;104;
38687;PMS5003;24444;53.216;-6.664;2022-12-13T12:15:44;110;92;
38687;PMS5003;24444;53.216;-6.664;2022-12-13T12:18:18;76;68;
38687;PMS5003;24444;53.216;-6.664;2022-12-13T12:20:50;66;61;
38687;PMS5003;24444;53.216;-6.664;2022-12-13T12:23:32;76;63;
38687;PMS5003;24444;53.216;-6.664;2022-12-13T12:26:10;79;73;
38687;PMS5003;24444;53.216;-6.664;2022-12-13T12:28:50;231;213;
38687;PMS5003;24444;53.216;-6.664;2022-12-13T12:32:06;68;63;
38687;PMS5003;24444;53.216;-6.664;2022-12-13T12:34:43;67;58;
38687;PMS5003;24444;53.216;-6.664;2022-12-13T12:37:20;78;60;
38687;PMS5003;24444;53.216;-6.664;2022-12-13T12:40:02;76;60;
38687;PMS5003;24444;53.216;-6.664;2022-12-13T12:42:55;78;70;
38687;PMS5003;24444;53.216;-6.664;2022-12-13T12:45:37;63;58;
38687;PMS5003;24444;53.216;-6.664;2022-12-13T12:48:19;138;121;
38687;PMS5003;24444;53.216;-6.664;2022-12-13T12:51:22;171;161;
38687;PMS5003;24444;53.216;-6.664;2022-12-13T12:53:57;64;62;
38687;PMS5003;24444;53.216;-6.664;2022-12-13T12:56:37;57;55;
38687;PMS5003;24444;53.216;-6.664;2022-12-13T12:59:13;60;50;
38687;PMS5003;24444;53.216;-6.664;2022-12-13T13:01:51;62;54;
38687;PMS5003;24444;53.216;-6.664;2022-12-13T13:04:23;55;48;
38687;PMS5003;24444;53.216;-6.664;2022-12-13T13:06:55;64;56;
38687;PMS5003;24444;53.216;-6.664;2022-12-13T13:09:26;53;43;
38687;PMS5003;24444;53.216;-6.664;2022-12-13T13:11:55;42;38;
38687;PMS5003;24444;53.216;-6.664;2022-12-13T13:14:27;54;43;
38687;PMS5003;24444;53.216;-6.664;2022-12-13T13:16:57;63;49;
38687;PMS5003;24444;53.216;-6.664;2022-12-13T13:19:44;50;41;
38687;PMS5003;24444;53.216;-6.664;2022-12-13T13:22:29;50;42;
38687;PMS5003;24444;53.216;-6.664;2022-12-13T13:25:00;49;42;
38687;PMS5003;24444;53.216;-6.664;2022-12-13T13:27:46;56;42;
38687;PMS5003;24444;53.216;-6.664;2022-12-13T13:30:16;52;46;
38687;PMS5003;24444;53.216;-6.664;2022-12-13T13:32:46;47;42;
38687;PMS5003;24444;53.216;-6.664;2022-12-13T13:35:44;58;46;
38687;PMS5003;24444;53.216;-6.664;2022-12-13T13:38:25;47;40;
38687;PMS5003;24444;53.216;-6.664;2022-12-13T13:43:13;47;41;
38687;PMS5003;24444;53.216;-6.664;2022-12-13T13:45:51;48;40;
38687;PMS5003;24444;53.216;-6.664;2022-12-13T13:48:25;48;43;
38687;PMS5003;24444;53.216;-6.664;2022-12-13T13:52:16;44;39;
38687;PMS5003;24444;53.216;-6.664;2022-12-13T13:54:53;42;41;
38687;PMS5003;24444;53.216;-6.664;2022-12-13T13:57:55;54;46;
38687;PMS5003;24444;53.216;-6.664;2022-12-13T14:00:50;42;40;
38687;PMS5003;24444;53.216;-6.664;2022-12-13T14:04:08;55;48;
38687;PMS5003;24444;53.216;-6.664;2022-12-13T14:07:01;64;56;
38687;PMS5003;24444;53.216;-6.664;2022-12-13T14:09:52;52;46;
38687;PMS5003;24444;53.216;-6.664;2022-12-13T14:12:54;39;31;
38687;PMS5003;24444;53.216;-6.664;2022-12-13T14:15:38;37;29;
38687;PMS5003;24444;53.216;-6.664;2022-12-13T14:21:01;49;40;
38687;PMS5003;24444;53.216;-6.664;2022-12-13T14:23:38;48;40;
38687;PMS5003;24444;53.216;-6.664;2022-12-13T14:26:15;35;35;
38687;PMS5003;24444;53.216;-6.664;2022-12-13T14:28:50;42;38;
38687;PMS5003;24444;53.216;-6.664;2022-12-13T14:31:22;37;32;
38687;PMS5003;24444;53.216;-6.664;2022-12-13T14:33:51;42;37;
38687;PMS5003;24444;53.216;-6.664;2022-12-13T14:36:25;27;27;
38687;PMS5003;24444;53.216;-6.664;2022-12-13T14:39:02;37;35;
38687;PMS5003;24444;53.216;-6.664;2022-12-13T14:41:31;38;31;
38687;PMS5003;24444;53.216;-6.664;2022-12-13T14:44:14;41;34;
38687;PMS5003;24444;53.216;-6.664;2022-12-13T14:46:47;47;36;
38687;PMS5003;24444;53.216;-6.664;2022-12-13T14:49:17;38;33;
38687;PMS5003;24444;53.216;-6.664;2022-12-13T14:51:46;36;33;
38687;PMS5003;24444;53.216;-6.664;2022-12-13T14:54:18;37;32;
38687;PMS5003;24444;53.216;-6.664;2022-12-13T14:56:55;55;47;
38687;PMS5003;24444;53.216;-6.664;2022-12-13T14:59:24;51;46;
38687;PMS5003;24444;53.216;-6.664;2022-12-13T15:01:53;63;50;
38687;PMS5003;24444;53.216;-6.664;2022-12-13T15:04:23;57;49;
38687;PMS5003;24444;53.216;-6.664;2022-12-13T15:06:54;61;51;
38687;PMS5003;24444;53.216;-6.664;2022-12-13T15:09:25;53;47;
38687;PMS5003;24444;53.216;-6.664;2022-12-13T15:11:53;48;38;
38687;PMS5003;24444;53.216;-6.664;2022-12-13T15:14:24;50;43;
38687;PMS5003;24444;53.216;-6.664;2022-12-13T15:16:53;50;42;
38687;PMS5003;24444;53.216;-6.664;2022-12-13T15:19:23;62;55;
38687;PMS5003;24444;53.216;-6.664;2022-12-13T15:21:52;68;60;
38687;PMS5003;24444;53.216;-6.664;2022-12-13T15:24:22;72;64;
38687;PMS5003;24444;53.216;-6.664;2022-12-13T15:26:53;85;70;
38687;PMS5003;24444;53.216;-6.664;2022-12-13T15:29:22;76;63;
38687;PMS5003;24444;53.216;-6.664;2022-12-13T15:31:51;86;70;
38687;PMS5003;24444;53.216;-6.664;2022-12-13T15:34:20;82;67;
38687;PMS5003;24444;53.216;-6.664;2022-12-13T15:36:49;68;62;
38687;PMS5003;24444;53.216;-6.664;2022-12-13T15:39:16;80;65;
38687;PMS5003;24444;53.216;-6.664;2022-12-13T15:41:45;79;74;
38687;PMS5003;24444;53.216;-6.664;2022-12-13T15:44:16;67;56;
38687;PMS5003;24444;53.216;-6.664;2022-12-13T15:46:47;67;60;
38687;PMS5003;24444;53.216;-6.664;2022-12-13T15:49:20;78;67;
38687;PMS5003;24444;53.216;-6.664;2022-12-13T15:51:53;76;63;
38687;PMS5003;24444;53.216;-6.664;2022-12-13T15:54:22;75;62;
38687;PMS5003;24444;53.216;-6.664;2022-12-13T15:56:58;59;51;
38687;PMS5003;24444;53.216;-6.664;2022-12-13T15:59:28;69;55;
38687;PMS5003;24444;53.216;-6.664;2022-12-13T16:01:57;71;57;
38687;PMS5003;24444;53.216;-6.664;2022-12-13T16:04:26;60;52;
38687;PMS5003;24444;53.216;-6.664;2022-12-13T16:06:56;67;56;
38687;PMS5003;24444;53.216;-6.664;2022-12-13T16:09:27;72;60;
38687;PMS5003;24444;53.216;-6.664;2022-12-13T16:11:59;72;61;
38687;PMS5003;24444;53.216;-6.664;2022-12-13T16:14:35;81;65;
38687;PMS5003;24444;53.216;-6.664;2022-12-13T16:17:11;78;69;
38687;PMS5003;24444;53.216;-6.664;2022-12-13T16:19:44;74;65;
38687;PMS5003;24444;53.216;-6.664;2022-12-13T16:22:12;78;62;
38687;PMS5003;24444;53.216;-6.664;2022-12-13T16:24:39;98;88;
38687;PMS5003;24444;53.216;-6.664;2022-12-13T16:27:07;64;58;
38687;PMS5003;24444;53.216;-6.664;2022-12-13T16:29:35;62;53;
38687;PMS5003;24444;53.216;-6.664;2022-12-13T16:32:02;71;62;
38687;PMS5003;24444;53.216;-6.664;2022-12-13T16:34:29;64;50;